Startpagina
METAR-TAF:

METAR-TAF

Vliegvelden :

Internationale luchthaven van Nouakchott

Nouakchott, Mauritanië

breedte: 18-18-36N, lengte: 015-58-11W, hoogte: 3 m

Actueel weer

Dit bericht is 49 minuten geleden gemaakt, om 14:30 UTC
Wind 17 kt uit het westnoordwesten
Temperatuur 24°C
Vochtigheid 69%
Druk 1015 hPa
Zicht: 8000 m

METAR: GQNO 181430Z 30017KT 8000 NSC 24/18 Q1015 NOSIG

Tijdstip: 15:19 (15:19 UTC)

Verwachting

Dit bericht is 4 uur en het 19 minuten geleden gemaakt, om 11:00 UTC
Verwachting geldig van 18 om 12 UTC tot 19 om 18 UTC
Wind 12 kt uit het noordnoordwesten
Zicht: 7000 m

TAF: GQNO 181100Z 1812/1918 34012KT 7000 NSC

Waarnemingen en weersverwachtingen van meer dan 4000 vliegvelden (METAR en TAF).

De beschikbare stations zijn de gele en rode punten op de kaart.

Ga met uw muis naar het station om de naam te zien.

Klik dan om waarnemingen en weersverwachtingen te zien.

kaart wijzigen: klik op de groene knoppen met een zwart kruis om in te zoomen, op de groene knop met een streepje om uit te zoomen of op de groene pijlen voor aangrenzende kaarten.


METAR-TAF: